Time;durP1;ratioP1;P1;durP2;ratioP2;P2;SDS_P1;SDS_P2;PMS_P1;PMS_P2;Temp;Humidity;BMP_temperature;BMP_pressure;BME280_temperature;BME280_humidity;BME280_pressure;Samples;Min_cycle;Max_cycle;Signal;HPM_P1;HPM_P2
2022/01/08 00:01:24;;;;;;;12.90;9.50;;;-1.00;81.00;;;;;;6377596;27;20475;-65
2022/01/08 00:04:29;;;;;;;9.60;8.43;;;-1.00;81.10;;;;;;6377718;27;20477;-65
2022/01/08 00:07:32;;;;;;;13.33;9.57;;;-1.00;81.20;;;;;;6377705;27;20481;-64
2022/01/08 00:10:37;;;;;;;11.63;9.60;;;-1.00;81.30;;;;;;6378001;27;20466;-65
2022/01/08 00:13:40;;;;;;;10.80;8.70;;;-1.00;81.30;;;;;;6377636;27;20458;-65
2022/01/08 00:16:43;;;;;;;13.37;10.27;;;-1.00;81.10;;;;;;6377727;27;20486;-63
2022/01/08 00:19:46;;;;;;;16.07;10.10;;;-1.10;81.10;;;;;;6377170;27;20473;-63
2022/01/08 00:22:51;;;;;;;13.33;10.87;;;-1.20;81.60;;;;;;6369635;27;20829;-64
2022/01/08 00:25:55;;;;;;;17.63;11.03;;;-1.30;82.40;;;;;;6352002;27;20582;-65
2022/01/08 00:28:59;;;;;;;14.13;10.70;;;-1.30;82.90;;;;;;6351844;28;20467;-65
2022/01/08 00:32:02;;;;;;;13.43;10.73;;;-1.30;83.10;;;;;;6351542;28;20475;-65
2022/01/08 00:35:06;;;;;;;17.83;12.70;;;-1.30;83.10;;;;;;6351572;28;20475;-65
2022/01/08 00:38:09;;;;;;;16.23;12.13;;;-1.30;83.20;;;;;;6351785;28;20473;-66
2022/01/08 00:41:14;;;;;;;16.77;11.40;;;-1.30;83.40;;;;;;6347809;28;20479;-66
2022/01/08 00:44:18;;;;;;;14.57;10.50;;;-1.30;83.40;;;;;;6326792;28;20472;-65
2022/01/08 00:47:21;;;;;;;12.20;10.37;;;-1.30;83.50;;;;;;6342395;28;20474;-65
2022/01/08 00:50:24;;;;;;;16.50;9.90;;;-1.30;83.50;;;;;;6365605;27;20476;-66
2022/01/08 00:53:28;;;;;;;16.77;10.57;;;-1.30;83.80;;;;;;6381427;27;20535;-66
2022/01/08 00:56:33;;;;;;;12.90;9.77;;;-1.30;83.80;;;;;;6381656;27;20799;-65
2022/01/08 00:59:36;;;;;;;13.77;10.10;;;-1.30;84.00;;;;;;6379631;27;20481;-65
2022/01/08 01:02:40;;;;;;;13.77;9.90;;;-1.30;84.10;;;;;;6380204;27;20477;-66
2022/01/08 01:05:43;;;;;;;17.90;11.17;;;-1.30;84.30;;;;;;6368882;27;20474;-66
2022/01/08 01:08:47;;;;;;;20.43;10.07;;;-1.30;84.40;;;;;;6379952;27;21157;-66
2022/01/08 01:11:55;;;;;;;13.47;10.57;;;-1.40;84.60;;;;;;6379554;27;20467;-65
2022/01/08 01:14:58;;;;;;;12.07;9.70;;;-1.40;84.70;;;;;;6378825;27;20474;-66
2022/01/08 01:18:01;;;;;;;11.20;9.87;;;-1.50;84.80;;;;;;6381079;27;20470;-66
2022/01/08 01:21:04;;;;;;;11.90;9.30;;;-1.50;85.00;;;;;;6381348;27;20776;-65
2022/01/08 01:24:13;;;;;;;13.53;9.53;;;-1.50;85.10;;;;;;6361271;27;20490;-66
2022/01/08 01:27:51;;;;;;;12.60;9.83;;;-1.50;85.30;;;;;;6354183;27;20474;-66
2022/01/08 01:41:20;;;;;;;13.10;9.57;;;-1.50;86.80;;;;;;6349912;28;20475;-66
2022/01/08 01:47:45;;;;;;;13.37;9.30;;;-1.60;85.90;;;;;;6376059;27;20959;-65
2022/01/08 01:50:49;;;;;;;14.07;8.93;;;-1.60;86.30;;;;;;6374280;27;20809;-65
2022/01/08 01:53:52;;;;;;;10.17;8.73;;;-1.60;86.70;;;;;;6372515;27;20481;-65
2022/01/08 01:56:57;;;;;;;11.97;8.23;;;-1.60;87.40;;;;;;6354737;27;20471;-65
2022/01/08 02:00:01;;;;;;;11.70;9.30;;;-1.50;87.80;;;;;;6346687;28;20968;-65
2022/01/08 02:03:04;;;;;;;10.27;8.40;;;-1.50;87.50;;;;;;6347425;28;20470;-65
2022/01/08 02:06:08;;;;;;;11.10;8.47;;;-1.50;87.50;;;;;;6347090;28;20471;-64
2022/01/08 02:09:12;;;;;;;11.57;8.10;;;-1.50;87.30;;;;;;6338605;28;20479;-64
2022/01/08 02:12:17;;;;;;;9.90;8.27;;;-1.60;86.80;;;;;;6368605;27;20485;-64
2022/01/08 02:15:21;;;;;;;10.47;8.30;;;-1.50;87.30;;;;;;6350331;27;20459;-64
2022/01/08 02:18:26;;;;;;;11.40;7.73;;;-1.50;87.20;;;;;;6344752;27;20474;-64
2022/01/08 02:21:30;;;;;;;13.23;8.40;;;-1.50;86.90;;;;;;6346410;27;20839;-65
2022/01/08 02:24:34;;;;;;;14.07;10.80;;;-1.50;86.70;;;;;;6348145;27;20467;-65
2022/01/08 02:27:37;;;;;;;11.93;10.00;;;-1.40;86.90;;;;;;6347640;28;20979;-64
2022/01/08 02:30:40;;;;;;;11.47;10.23;;;-1.40;87.10;;;;;;6346753;27;20478;-64
2022/01/08 02:33:43;;;;;;;9.87;8.53;;;-1.40;86.70;;;;;;6346930;27;20982;-65
2022/01/08 02:36:48;;;;;;;13.97;9.57;;;-1.20;87.10;;;;;;6348129;28;20471;-65
2022/01/08 02:39:52;;;;;;;10.13;9.20;;;-1.20;86.70;;;;;;6346686;28;20463;-64
2022/01/08 02:43:01;;;;;;;11.10;8.97;;;-1.20;86.10;;;;;;6346867;27;20509;-64
2022/01/08 02:46:04;;;;;;;9.63;8.63;;;-1.20;86.50;;;;;;6343274;28;20471;-65
2022/01/08 02:49:08;;;;;;;11.43;9.10;;;-1.10;86.60;;;;;;6346473;27;20471;-64
2022/01/08 02:52:13;;;;;;;10.33;7.37;;;-1.00;86.20;;;;;;6348190;28;20443;-64
2022/01/08 02:55:17;;;;;;;7.73;7.00;;;-1.00;85.90;;;;;;6348898;28;20761;-65
2022/01/08 02:58:21;;;;;;;9.67;7.70;;;-1.00;86.40;;;;;;6352036;27;20462;-64
2022/01/08 03:01:24;;;;;;;9.07;7.87;;;-0.90;86.50;;;;;;6351059;28;20467;-65
2022/01/08 03:04:27;;;;;;;11.80;8.00;;;-0.90;86.40;;;;;;6352635;27;20459;-65
2022/01/08 03:07:32;;;;;;;13.17;9.63;;;-0.90;87.20;;;;;;6355104;27;20459;-64
2022/01/08 03:10:35;;;;;;;10.53;7.40;;;-0.80;86.80;;;;;;6354968;27;20470;-65
2022/01/08 03:13:38;;;;;;;12.03;8.17;;;-0.80;86.10;;;;;;6354183;27;20520;-65
2022/01/08 03:16:41;;;;;;;12.70;9.07;;;-0.80;85.70;;;;;;6354481;27;20478;-65
2022/01/08 03:19:45;;;;;;;12.50;9.07;;;-0.70;85.80;;;;;;6354512;27;20467;-64
2022/01/08 03:22:49;;;;;;;10.00;8.00;;;-0.70;85.80;;;;;;6354987;27;20524;-64
2022/01/08 03:25:52;;;;;;;10.33;7.77;;;-0.70;85.60;;;;;;6354676;27;20463;-65
2022/01/08 03:28:56;;;;;;;10.07;8.63;;;-0.60;85.60;;;;;;6354147;27;20467;-64
2022/01/08 03:32:00;;;;;;;11.50;8.20;;;-0.60;85.50;;;;;;6354087;27;21061;-65
2022/01/08 03:35:04;;;;;;;7.70;7.00;;;-0.60;85.50;;;;;;6353855;27;20803;-65
2022/01/08 03:38:08;;;;;;;9.20;7.13;;;-0.60;85.50;;;;;;6353332;27;20474;-65
2022/01/08 03:41:12;;;;;;;9.77;7.47;;;-0.60;85.70;;;;;;6353154;27;21001;-65
2022/01/08 03:44:15;;;;;;;10.90;9.13;;;-0.60;85.50;;;;;;6352988;27;21002;-65
2022/01/08 03:47:42;;;;;;;9.40;7.10;;;-0.70;85.40;;;;;;6352604;27;20840;-65
2022/01/08 03:50:45;;;;;;;13.50;7.80;;;-0.70;86.20;;;;;;6352464;27;20463;-65
2022/01/08 03:53:50;;;;;;;9.97;7.90;;;-0.70;86.70;;;;;;6353067;27;20818;-64
2022/01/08 03:56:53;;;;;;;10.60;8.27;;;-0.60;87.10;;;;;;6352465;27;20968;-65
2022/01/08 03:59:56;;;;;;;12.37;8.37;;;-0.60;87.40;;;;;;6352806;27;20813;-65
2022/01/08 04:02:59;;;;;;;15.70;9.77;;;-0.70;87.40;;;;;;6352696;27;20815;-65
2022/01/08 04:06:02;;;;;;;19.80;14.20;;;-0.70;87.50;;;;;;6351629;27;20548;-65
2022/01/08 04:09:07;;;;;;;20.00;12.93;;;-0.80;87.70;;;;;;6352483;27;20478;-65
2022/01/08 04:12:10;;;;;;;18.03;12.63;;;-0.90;88.00;;;;;;6352278;27;20475;-65
2022/01/08 04:15:35;;;;;;;17.97;12.40;;;-1.00;88.40;;;;;;6343148;27;20493;-65
2022/01/08 04:18:38;;;;;;;20.80;12.90;;;-1.10;88.90;;;;;;6352131;27;20479;-65
2022/01/08 04:22:07;;;;;;;21.93;12.10;;;-1.10;89.10;;;;;;6352275;27;20479;-65
2022/01/08 04:25:12;;;;;;;24.20;14.43;;;-1.00;89.30;;;;;;6351955;27;20459;-65
2022/01/08 04:28:16;;;;;;;16.57;12.20;;;-1.10;90.00;;;;;;6349895;27;20459;-65
2022/01/08 04:31:19;;;;;;;18.37;11.97;;;-1.00;90.20;;;;;;6351451;28;20482;-65
2022/01/08 04:34:22;;;;;;;14.47;11.87;;;-1.00;90.20;;;;;;6351636;27;20475;-65
2022/01/08 04:37:26;;;;;;;19.00;11.93;;;-1.00;90.30;;;;;;6350142;28;20463;-64
2022/01/08 04:40:30;;;;;;;13.77;10.90;;;-1.00;90.30;;;;;;6350589;27;20467;-65
2022/01/08 04:43:37;;;;;;;19.20;10.67;;;-1.10;90.30;;;;;;6350870;27;20524;-65
2022/01/08 04:51:54;;;;;;;;;;;;;;;;;;;;;
2022/01/08 05:35:39;;;;;;;10.30;8.80;;;-1.10;91.40;;;;;;6212659;28;20954;-65
2022/01/08 06:17:33;;;;;;;21.43;12.60;;;-1.60;93.20;;;;;;6145827;29;20477;-63
2022/01/08 07:00:21;;;;;;;;;;;;;;;;;;;;;
2022/01/08 08:55:43;;;;;;;22.73;13.07;;;2.30;89.70;;;;;;6023502;29;20463;-65
2022/01/08 09:40:48;;;;;;;24.30;14.57;;;5.10;75.20;;;;;;6172403;23;20513;-65
2022/01/08 11:28:22;;;;;;;15.90;13.77;;;4.50;76.30;;;;;;5975710;29;20621;-67
2022/01/08 11:31:57;;;;;;;16.10;12.30;;;4.70;77.60;;;;;;6084653;29;20467;-63
2022/01/08 11:35:02;;;;;;;17.47;13.10;;;5.10;76.50;;;;;;6152687;28;20459;-63
2022/01/08 11:38:07;;;;;;;16.00;13.00;;;5.60;74.60;;;;;;6209503;28;20463;-63
2022/01/08 11:41:10;;;;;;;16.13;12.30;;;5.60;74.10;;;;;;6214180;28;20488;-63
2022/01/08 11:44:14;;;;;;;17.83;12.10;;;7.00;72.90;;;;;;6216243;28;20485;-63
2022/01/08 11:47:21;;;;;;;22.03;12.10;;;10.50;62.80;;;;;;6224978;28;20464;-63
2022/01/08 11:50:27;;;;;;;14.03;12.50;;;14.60;51.70;;;;;;6226371;28;20472;-63
2022/01/08 11:53:31;;;;;;;14.10;10.90;;;16.80;42.40;;;;;;6238457;28;20486;-63
2022/01/08 11:56:37;;;;;;;12.70;11.40;;;19.80;38.00;;;;;;6250830;28;20478;-63
2022/01/08 11:59:41;;;;;;;15.30;11.53;;;20.30;31.10;;;;;;6250700;28;20568;-63
2022/01/08 12:02:45;;;;;;;16.63;10.73;;;18.10;31.80;;;;;;6254249;28;20820;-63
2022/01/08 12:05:49;;;;;;;13.00;11.70;;;16.30;34.00;;;;;;6274766;28;20489;-63
2022/01/08 12:09:07;;;;;;;15.37;12.50;;;15.20;35.70;;;;;;6274651;28;20482;-63
2022/01/08 12:12:10;;;;;;;15.63;12.30;;;14.10;36.60;;;;;;6275071;28;20902;-64
2022/01/08 12:15:14;;;;;;;13.77;11.10;;;13.40;38.50;;;;;;6274981;28;20474;-63
2022/01/08 12:18:20;;;;;;;15.97;11.73;;;14.50;38.60;;;;;;6274848;28;20477;-64
2022/01/08 12:21:35;;;;;;;14.23;10.30;;;17.70;35.30;;;;;;6275077;28;20474;-63
2022/01/08 12:24:39;;;;;;;10.50;9.50;;;20.80;29.80;;;;;;6274953;28;20466;-63
2022/01/08 12:27:45;;;;;;;10.73;8.30;;;22.50;28.10;;;;;;6274787;28;20691;-63
2022/01/08 12:30:49;;;;;;;9.73;8.60;;;24.00;25.90;;;;;;6274090;28;20238;-64
2022/01/08 12:34:45;;;;;;;9.70;8.80;;;24.80;24.60;;;;;;6274686;28;20231;-63
2022/01/08 12:37:52;;;;;;;10.13;9.13;;;25.80;24.40;;;;;;6201553;28;20221;-64
2022/01/08 12:40:56;;;;;;;10.57;9.43;;;26.80;22.80;;;;;;6274623;28;20235;-63
2022/01/08 12:44:25;;;;;;;11.23;9.80;;;27.10;21.80;;;;;;6270018;28;20232;-64
2022/01/08 12:47:49;;;;;;;11.33;9.30;;;27.50;21.20;;;;;;6273771;28;20604;-66
2022/01/08 12:50:56;;;;;;;10.77;9.67;;;28.10;21.00;;;;;;6274138;28;20244;-64
2022/01/08 12:54:06;;;;;;;9.57;8.67;;;28.70;20.50;;;;;;6274264;28;20236;-63
2022/01/08 12:57:09;;;;;;;10.30;8.67;;;27.80;20.00;;;;;;6273983;28;20233;-65
2022/01/08 13:00:13;;;;;;;10.43;9.40;;;27.50;20.60;;;;;;6273940;28;20229;-62
2022/01/08 13:03:20;;;;;;;10.00;8.83;;;27.30;20.30;;;;;;6273875;28;20251;-63
2022/01/08 13:06:35;;;;;;;9.73;7.70;;;27.70;20.40;;;;;;6273691;28;20242;-64
2022/01/08 13:09:40;;;;;;;9.00;8.20;;;27.00;19.90;;;;;;6273704;28;20228;-63
2022/01/08 13:12:43;;;;;;;10.73;8.40;;;26.20;20.80;;;;;;6273853;28;20220;-64
2022/01/08 13:15:46;;;;;;;9.03;8.23;;;26.00;21.00;;;;;;6273725;28;20250;-64
2022/01/08 13:18:50;;;;;;;9.83;8.80;;;26.50;21.00;;;;;;6274195;28;20235;-64
2022/01/08 13:21:55;;;;;;;9.17;8.37;;;26.80;20.80;;;;;;6273786;28;20231;-64
2022/01/08 13:24:59;;;;;;;8.87;8.03;;;26.30;20.70;;;;;;6274584;28;20254;-63
2022/01/08 13:28:03;;;;;;;8.57;7.83;;;26.10;21.00;;;;;;6277941;28;20228;-63
2022/01/08 13:31:06;;;;;;;9.47;8.47;;;25.10;21.60;;;;;;6278568;28;20219;-63
2022/01/08 13:34:10;;;;;;;10.37;7.93;;;25.30;21.50;;;;;;6278998;28;20203;-63
2022/01/08 13:37:15;;;;;;;9.10;7.97;;;24.80;21.30;;;;;;6278128;28;20685;-64
2022/01/08 13:40:19;;;;;;;8.70;7.40;;;23.20;21.70;;;;;;6275316;28;20223;-63
2022/01/08 13:43:24;;;;;;;8.50;7.70;;;23.20;22.40;;;;;;6276875;28;20231;-63
2022/01/08 13:46:29;;;;;;;9.63;7.87;;;23.90;21.80;;;;;;6277158;28;20281;-63
2022/01/08 13:49:33;;;;;;;9.03;5.40;;;23.80;21.20;;;;;;6267083;28;20759;-64
2022/01/08 13:52:39;;;;;;;9.13;6.37;;;21.90;21.60;;;;;;6276948;28;20663;-63
2022/01/08 13:55:45;;;;;;;6.67;6.00;;;21.90;22.20;;;;;;6276911;28;20543;-63
2022/01/08 13:58:49;;;;;;;7.60;6.10;;;21.60;22.50;;;;;;6276900;28;20227;-63
2022/01/08 14:01:58;;;;;;;6.80;6.20;;;21.80;22.70;;;;;;6276648;28;20247;-62
2022/01/08 14:05:01;;;;;;;5.90;5.40;;;22.10;22.40;;;;;;6276298;28;20235;-63
2022/01/08 14:08:07;;;;;;;6.33;5.67;;;21.50;22.60;;;;;;6276918;28;20231;-62
2022/01/08 14:11:22;;;;;;;6.83;6.17;;;20.20;23.50;;;;;;6276655;28;20231;-64
2022/01/08 14:14:25;;;;;;;6.60;6.00;;;20.50;23.60;;;;;;6275420;28;20232;-65
2022/01/08 14:17:30;;;;;;;6.83;6.23;;;20.70;23.20;;;;;;6271353;28;20227;-64
2022/01/08 14:20:33;;;;;;;6.33;5.70;;;20.80;23.00;;;;;;6256618;28;20833;-64
2022/01/08 14:23:36;;;;;;;5.93;5.13;;;20.00;23.20;;;;;;6260701;28;20493;-63
2022/01/08 14:26:41;;;;;;;7.10;6.40;;;18.30;24.10;;;;;;6276559;28;20485;-63
2022/01/08 14:29:46;;;;;;;7.87;6.80;;;16.30;26.20;;;;;;6276583;28;20489;-63
2022/01/08 14:32:49;;;;;;;15.30;7.93;;;14.70;28.10;;;;;;6276437;28;20466;-63
2022/01/08 14:36:01;;;;;;;8.23;6.70;;;12.80;30.50;;;;;;6276998;28;20490;-63
2022/01/08 14:39:04;;;;;;;8.27;7.43;;;11.80;33.30;;;;;;6276138;28;20478;-63
2022/01/08 14:42:11;;;;;;;8.77;7.87;;;10.90;35.10;;;;;;6275852;28;20470;-63
2022/01/08 14:45:19;;;;;;;8.23;7.53;;;9.60;38.70;;;;;;6275561;28;20469;-63
2022/01/08 14:48:24;;;;;;;9.30;7.80;;;8.70;40.70;;;;;;6274994;28;20477;-62
2022/01/08 14:51:32;;;;;;;8.17;7.50;;;7.80;42.80;;;;;;6275356;28;20828;-62
2022/01/08 14:54:35;;;;;;;10.87;8.97;;;7.20;44.10;;;;;;6274954;28;20478;-63
2022/01/08 14:57:41;;;;;;;8.83;7.93;;;6.80;45.50;;;;;;6275546;28;20571;-63
2022/01/08 15:00:44;;;;;;;9.33;8.10;;;6.40;46.80;;;;;;6274676;28;20553;-63
2022/01/08 15:03:48;;;;;;;9.47;8.57;;;6.00;47.40;;;;;;6274247;28;20521;-63
2022/01/08 15:06:53;;;;;;;8.80;7.90;;;5.60;48.60;;;;;;6274529;28;20819;-63
2022/01/08 15:09:56;;;;;;;7.87;6.93;;;5.30;49.30;;;;;;6274967;28;20480;-62
2022/01/08 15:13:01;;;;;;;9.63;7.93;;;5.10;50.40;;;;;;6274796;28;20512;-62
2022/01/08 15:16:05;;;;;;;9.23;7.20;;;4.90;51.20;;;;;;6275415;28;20438;-62
2022/01/08 15:19:10;;;;;;;7.90;7.03;;;4.80;51.90;;;;;;6274525;28;20452;-62
2022/01/08 15:22:13;;;;;;;9.60;7.73;;;4.70;52.50;;;;;;6274745;28;20492;-61
2022/01/08 15:25:16;;;;;;;9.43;8.43;;;4.50;53.10;;;;;;6273754;28;20913;-62
2022/01/08 15:28:22;;;;;;;8.23;7.40;;;4.40;53.90;;;;;;6274504;28;20454;-62
2022/01/08 15:31:25;;;;;;;9.07;8.13;;;4.30;54.70;;;;;;6273529;28;20780;-61
2022/01/08 15:34:28;;;;;;;12.07;8.77;;;4.20;55.50;;;;;;6274826;28;20466;-61
2022/01/08 15:37:32;;;;;;;8.50;7.40;;;4.00;56.40;;;;;;6274266;28;20462;-62
2022/01/08 15:40:35;;;;;;;11.47;8.87;;;3.80;57.30;;;;;;6274439;28;20493;-61
2022/01/08 15:43:40;;;;;;;10.30;7.90;;;3.70;57.80;;;;;;6273448;28;20813;-61
2022/01/08 15:46:44;;;;;;;8.67;7.87;;;3.70;58.50;;;;;;6273610;28;21253;-61
2022/01/08 15:49:47;;;;;;;10.23;9.10;;;3.70;58.80;;;;;;6273785;28;20493;-61
2022/01/08 15:52:50;;;;;;;8.60;7.63;;;3.60;59.40;;;;;;6273570;28;20536;-61
2022/01/08 15:55:53;;;;;;;8.13;7.10;;;3.50;60.10;;;;;;6264018;28;20474;-62
2022/01/08 15:58:58;;;;;;;9.87;7.87;;;3.50;60.30;;;;;;6273833;28;20484;-61
2022/01/08 16:02:01;;;;;;;11.80;8.90;;;3.50;61.30;;;;;;6273857;28;20536;-61
2022/01/08 16:05:04;;;;;;;9.60;8.60;;;3.40;61.80;;;;;;6273486;28;20477;-61
2022/01/08 16:08:08;;;;;;;12.50;8.93;;;3.30;62.90;;;;;;6273633;28;20481;-61
2022/01/08 16:11:11;;;;;;;14.30;9.50;;;3.30;63.70;;;;;;6273413;28;20486;-61
2022/01/08 16:14:15;;;;;;;15.87;10.43;;;3.30;64.50;;;;;;6273669;28;20485;-62
2022/01/08 16:17:18;;;;;;;11.17;9.40;;;3.20;64.90;;;;;;6273036;28;21027;-62
2022/01/08 16:20:22;;;;;;;10.80;9.53;;;3.10;65.60;;;;;;6273133;28;21182;-63
2022/01/08 16:23:25;;;;;;;17.40;10.63;;;3.10;66.30;;;;;;6273109;28;20814;-62
2022/01/08 16:26:29;;;;;;;14.80;11.00;;;3.10;66.90;;;;;;6272984;28;20810;-62
2022/01/08 16:29:34;;;;;;;18.23;11.53;;;3.10;66.90;;;;;;6273233;28;20527;-63
2022/01/08 16:32:38;;;;;;;14.03;12.33;;;3.00;67.30;;;;;;6272942;28;20778;-62
2022/01/08 16:35:45;;;;;;;17.17;13.90;;;2.90;67.80;;;;;;6273333;28;20474;-63
2022/01/08 16:38:48;;;;;;;20.43;14.10;;;2.90;68.50;;;;;;6272181;28;20481;-62
2022/01/08 16:41:52;;;;;;;18.73;11.47;;;2.90;69.30;;;;;;6272756;28;20809;-62
2022/01/08 16:44:56;;;;;;;22.30;14.83;;;2.90;69.60;;;;;;6272329;28;20465;-62
2022/01/08 16:48:00;;;;;;;21.93;14.93;;;2.80;69.80;;;;;;6273179;28;20477;-62
2022/01/08 16:51:03;;;;;;;21.60;13.33;;;2.80;70.30;;;;;;6273198;28;20490;-62
2022/01/08 16:54:06;;;;;;;19.67;12.87;;;2.70;70.80;;;;;;6273136;28;20469;-63
2022/01/08 16:57:10;;;;;;;19.60;13.40;;;2.80;71.40;;;;;;6272766;28;20941;-61
2022/01/08 17:00:16;;;;;;;19.30;14.17;;;2.70;71.40;;;;;;6268206;28;20522;-62
2022/01/08 17:03:19;;;;;;;26.43;16.60;;;2.60;71.90;;;;;;6276347;28;20480;-64
2022/01/08 17:06:23;;;;;;;17.17;14.23;;;2.60;72.20;;;;;;6275620;28;20474;-61
2022/01/08 17:09:26;;;;;;;21.27;14.40;;;2.60;72.50;;;;;;6274839;28;20979;-63
2022/01/08 17:12:29;;;;;;;22.27;15.10;;;2.50;72.90;;;;;;6276192;28;20470;-63
2022/01/08 17:15:34;;;;;;;20.87;13.13;;;2.50;73.80;;;;;;6276117;28;20474;-61
2022/01/08 17:18:37;;;;;;;18.30;15.20;;;2.40;74.50;;;;;;6276362;28;20473;-62
2022/01/08 17:21:40;;;;;;;16.70;13.80;;;2.40;74.80;;;;;;6276239;28;20474;-63
2022/01/08 17:24:44;;;;;;;21.30;13.80;;;2.30;74.90;;;;;;6277142;28;21017;-62
2022/01/08 17:27:47;;;;;;;18.63;15.13;;;2.30;75.40;;;;;;6277583;28;20485;-63
2022/01/08 17:30:52;;;;;;;29.23;16.47;;;2.30;75.90;;;;;;6277177;28;20485;-61
2022/01/08 17:33:55;;;;;;;26.13;18.80;;;2.20;76.20;;;;;;6277142;28;20806;-62
2022/01/08 17:36:58;;;;;;;25.30;19.47;;;2.20;76.40;;;;;;6277285;28;20480;-62
2022/01/08 17:40:02;;;;;;;21.07;18.70;;;2.20;76.80;;;;;;6252568;28;20467;-62
2022/01/08 17:43:05;;;;;;;28.30;21.70;;;2.10;77.10;;;;;;6252101;28;20761;-61
2022/01/08 17:46:10;;;;;;;20.93;17.23;;;2.10;77.30;;;;;;6252070;28;20443;-63
2022/01/08 17:49:15;;;;;;;20.60;18.30;;;2.10;77.70;;;;;;6251595;28;20470;-62
2022/01/08 17:52:19;;;;;;;21.27;19.10;;;2.10;78.00;;;;;;6253932;28;20446;-60
2022/01/08 17:55:22;;;;;;;20.40;16.90;;;2.00;78.00;;;;;;6253216;28;20468;-61
2022/01/08 17:58:25;;;;;;;19.17;17.10;;;2.00;78.40;;;;;;6252560;28;20481;-62
2022/01/08 18:01:31;;;;;;;21.30;15.13;;;2.00;78.90;;;;;;6254589;28;20475;-62
2022/01/08 18:04:35;;;;;;;17.80;14.73;;;2.00;79.20;;;;;;6261743;28;20466;-62
2022/01/08 18:07:38;;;;;;;15.70;12.90;;;1.90;79.60;;;;;;6277009;28;20809;-62
2022/01/08 18:10:44;;;;;;;21.73;15.07;;;1.90;79.70;;;;;;6278906;28;20489;-61
2022/01/08 18:13:47;;;;;;;19.50;16.30;;;1.80;80.00;;;;;;6278636;28;20504;-61
2022/01/08 18:16:51;;;;;;;30.83;18.70;;;1.80;80.40;;;;;;6280644;28;20965;-61
2022/01/08 18:19:55;;;;;;;22.37;17.27;;;1.70;80.60;;;;;;6279969;28;20470;-61
2022/01/08 18:22:59;;;;;;;23.30;17.67;;;1.70;81.00;;;;;;6279698;28;20488;-61
2022/01/08 18:26:02;;;;;;;21.10;17.20;;;1.70;81.20;;;;;;6280475;28;20482;-61
2022/01/08 18:29:05;;;;;;;26.27;17.93;;;1.60;81.40;;;;;;6277237;28;20470;-60
2022/01/08 18:32:11;;;;;;;22.93;17.47;;;1.60;81.80;;;;;;6276699;28;20477;-61
2022/01/08 18:35:15;;;;;;;19.00;16.17;;;1.50;82.10;;;;;;6276625;28;20481;-59
2022/01/08 18:38:18;;;;;;;19.13;16.40;;;1.40;82.50;;;;;;6276645;28;20489;-60
2022/01/08 18:41:21;;;;;;;22.47;17.33;;;1.40;82.70;;;;;;6276435;28;20489;-60
2022/01/08 18:44:24;;;;;;;28.77;17.83;;;1.40;83.00;;;;;;6275421;28;20957;-61
2022/01/08 18:47:29;;;;;;;22.17;18.00;;;1.30;83.20;;;;;;6275663;28;20457;-61
2022/01/08 18:50:33;;;;;;;26.97;20.13;;;1.30;83.40;;;;;;6275739;28;20536;-61
2022/01/08 18:53:36;;;;;;;20.47;16.77;;;1.30;83.70;;;;;;6275603;28;20470;-61
2022/01/08 18:56:39;;;;;;;25.40;19.33;;;1.30;84.20;;;;;;6275652;28;20964;-62
2022/01/08 18:59:49;;;;;;;20.47;18.17;;;1.20;84.60;;;;;;6274892;28;20485;-62
2022/01/08 19:02:54;;;;;;;23.30;16.80;;;1.20;84.70;;;;;;6275051;28;20484;-62
2022/01/08 19:05:58;;;;;;;23.23;17.77;;;1.10;84.70;;;;;;6275068;28;20510;-61
2022/01/08 19:09:01;;;;;;;22.97;16.57;;;1.10;84.90;;;;;;6264998;28;20520;-62
2022/01/08 19:12:05;;;;;;;19.27;16.07;;;1.10;85.30;;;;;;6274793;28;20489;-61
2022/01/08 19:15:09;;;;;;;22.03;17.87;;;1.00;85.40;;;;;;6274765;28;20481;-62
2022/01/08 19:18:14;;;;;;;25.27;15.70;;;0.90;85.70;;;;;;6274931;28;20470;-61
2022/01/08 19:21:17;;;;;;;20.37;16.97;;;0.90;86.20;;;;;;6274887;28;20466;-61
2022/01/08 19:24:21;;;;;;;24.03;16.40;;;0.90;86.50;;;;;;6273644;28;20482;-61
2022/01/08 19:27:24;;;;;;;18.03;14.87;;;0.80;86.30;;;;;;6274873;28;20478;-62
2022/01/08 19:30:27;;;;;;;25.27;16.90;;;0.80;86.40;;;;;;6274162;28;20488;-61
2022/01/08 19:33:31;;;;;;;21.40;15.83;;;0.80;86.70;;;;;;6274736;28;20466;-62
2022/01/08 19:36:35;;;;;;;21.93;15.47;;;0.80;86.90;;;;;;6274341;28;20470;-61
2022/01/08 19:39:38;;;;;;;22.17;16.50;;;0.70;86.80;;;;;;6273821;28;20485;-62
2022/01/08 19:42:41;;;;;;;23.47;19.30;;;0.70;87.10;;;;;;6274260;28;20485;-62
2022/01/08 19:45:45;;;;;;;26.70;18.30;;;0.70;87.40;;;;;;6274102;28;20470;-63
2022/01/08 19:48:49;;;;;;;22.47;17.03;;;0.70;87.80;;;;;;6273671;28;20485;-62
2022/01/08 19:51:52;;;;;;;23.60;16.50;;;0.60;88.90;;;;;;6274203;28;20555;-64
2022/01/08 19:54:57;;;;;;;22.43;16.30;;;0.60;89.50;;;;;;6273999;28;20475;-61
2022/01/08 19:58:00;;;;;;;24.57;15.90;;;0.50;89.60;;;;;;6274398;28;20504;-61
2022/01/08 20:01:04;;;;;;;21.03;15.80;;;0.60;89.70;;;;;;6274045;28;20458;-62
2022/01/08 20:04:09;;;;;;;21.37;14.80;;;0.60;89.40;;;;;;6274226;28;20490;-62
2022/01/08 20:07:13;;;;;;;19.57;15.93;;;0.60;89.10;;;;;;6274186;28;20442;-63
2022/01/08 20:10:16;;;;;;;21.07;16.20;;;0.50;89.00;;;;;;6273796;28;20937;-63
2022/01/08 20:13:20;;;;;;;22.97;15.53;;;0.40;89.20;;;;;;6273901;28;20437;-63
2022/01/08 20:16:23;;;;;;;20.90;15.70;;;0.40;89.70;;;;;;6273700;28;20473;-63
2022/01/08 20:19:28;;;;;;;20.47;18.27;;;0.40;89.80;;;;;;6273728;28;20470;-63
2022/01/08 20:22:31;;;;;;;20.90;18.00;;;0.40;89.30;;;;;;6274021;28;20477;-63
2022/01/08 20:25:34;;;;;;;23.93;15.93;;;0.40;88.90;;;;;;6273528;28;20469;-62
2022/01/08 20:28:37;;;;;;;26.03;15.27;;;0.20;88.80;;;;;;6273202;28;20964;-63
2022/01/08 20:31:41;;;;;;;23.03;17.53;;;0.20;89.80;;;;;;6272945;28;20795;-63
2022/01/08 20:34:45;;;;;;;20.43;15.27;;;0.10;90.10;;;;;;6272867;28;20798;-63
2022/01/08 20:37:49;;;;;;;23.77;16.13;;;0.10;90.40;;;;;;6273112;28;20474;-62
2022/01/08 20:40:52;;;;;;;19.23;16.47;;;0.10;90.50;;;;;;6273132;28;20473;-62
2022/01/08 20:43:55;;;;;;;24.67;18.20;;;0.10;90.50;;;;;;6273775;28;20486;-61
2022/01/08 20:46:58;;;;;;;23.93;16.10;;;0.10;90.50;;;;;;6273306;28;20523;-62
2022/01/08 20:50:03;;;;;;;19.80;15.60;;;0.10;90.40;;;;;;6273390;28;20953;-62
2022/01/08 20:53:07;;;;;;;23.63;15.90;;;0.10;90.50;;;;;;6273391;28;20477;-62
2022/01/08 20:56:11;;;;;;;20.47;14.57;;;0.10;90.40;;;;;;6273437;28;20470;-63
2022/01/08 20:59:14;;;;;;;21.83;15.20;;;0.00;90.30;;;;;;6273561;28;20478;-62
2022/01/08 21:02:18;;;;;;;19.47;15.67;;;-0.10;90.50;;;;;;6272351;28;20478;-63
2022/01/08 21:05:23;;;;;;;19.83;15.70;;;-0.10;90.50;;;;;;6273129;28;20466;-62
2022/01/08 21:08:26;;;;;;;26.53;16.87;;;-0.20;90.50;;;;;;6273069;28;20477;-61
2022/01/08 21:11:31;;;;;;;20.67;16.53;;;-0.20;90.80;;;;;;6272969;28;20781;-62
2022/01/08 21:14:35;;;;;;;20.47;16.40;;;-0.30;91.00;;;;;;6272764;28;20477;-65
2022/01/08 21:17:38;;;;;;;21.67;16.47;;;-0.30;91.00;;;;;;6263512;28;20482;-63
2022/01/08 21:20:43;;;;;;;22.67;17.53;;;-0.30;91.10;;;;;;6273096;28;20482;-64
2022/01/08 21:23:46;;;;;;;22.70;16.17;;;-0.30;91.20;;;;;;6273421;28;20477;-64
2022/01/08 21:26:49;;;;;;;22.70;16.60;;;-0.30;91.20;;;;;;6272596;28;20493;-64
2022/01/08 21:29:53;;;;;;;20.20;16.20;;;-0.30;91.40;;;;;;6272664;28;20473;-64
2022/01/08 21:32:56;;;;;;;27.50;17.90;;;-0.40;91.30;;;;;;6263671;28;20786;-64
2022/01/08 21:36:03;;;;;;;24.93;17.80;;;-0.40;91.30;;;;;;6265680;28;20479;-65
2022/01/08 21:39:20;;;;;;;25.90;18.40;;;-0.40;91.50;;;;;;6265094;28;20484;-64
2022/01/08 21:42:24;;;;;;;28.30;18.17;;;-0.40;91.60;;;;;;6249394;28;20986;-64
2022/01/08 21:45:29;;;;;;;27.97;19.30;;;-0.40;91.70;;;;;;6248437;28;20494;-64
2022/01/08 21:48:32;;;;;;;26.17;16.53;;;-0.40;91.60;;;;;;6255224;28;20462;-64
2022/01/08 21:51:37;;;;;;;20.97;16.70;;;-0.30;91.60;;;;;;6276896;28;20821;-64
2022/01/08 21:54:40;;;;;;;19.63;16.20;;;-0.40;91.40;;;;;;6276692;28;20473;-64
2022/01/08 21:57:44;;;;;;;26.60;19.03;;;-0.40;91.40;;;;;;6276195;28;20470;-64
2022/01/08 22:00:47;;;;;;;25.97;16.97;;;-0.50;91.30;;;;;;6276241;28;20477;-64
2022/01/08 22:03:50;;;;;;;22.47;16.20;;;-0.50;91.40;;;;;;6276343;28;20486;-65
2022/01/08 22:06:55;;;;;;;21.70;17.87;;;-0.60;91.60;;;;;;6276328;28;20485;-64
2022/01/08 22:09:59;;;;;;;25.13;17.33;;;-0.60;92.00;;;;;;6276453;28;20481;-62
2022/01/08 22:13:02;;;;;;;22.77;17.37;;;-0.60;92.00;;;;;;6276685;28;20459;-62
2022/01/08 22:16:06;;;;;;;24.00;18.27;;;-0.60;92.40;;;;;;6277829;28;20469;-62
2022/01/08 22:19:09;;;;;;;17.27;14.20;;;-0.60;92.10;;;;;;6273438;28;20465;-62
2022/01/08 22:22:14;;;;;;;24.97;17.47;;;-0.60;92.10;;;;;;6278533;28;20477;-62
2022/01/08 22:25:17;;;;;;;24.30;16.80;;;-0.50;92.10;;;;;;6278321;28;20481;-62
2022/01/08 22:28:21;;;;;;;26.57;18.37;;;-0.60;91.90;;;;;;6278264;28;20476;-62
2022/01/08 22:31:24;;;;;;;22.13;18.50;;;-0.70;91.90;;;;;;6277234;28;21243;-62